sensor_id;sensor_type;location;lat;lon;timestamp;P1;durP1;ratioP1;P2;durP2;ratioP2
70780;SDS011;59514;48.810;2.134;2023-07-20T00:00:56;2.67;;;1.40;;
70780;SDS011;59514;48.810;2.134;2023-07-20T00:03:22;1.63;;;1.30;;
70780;SDS011;59514;48.810;2.134;2023-07-20T00:05:51;2.38;;;1.98;;
70780;SDS011;59514;48.810;2.134;2023-07-20T00:08:17;4.47;;;1.83;;
70780;SDS011;59514;48.810;2.134;2023-07-20T00:10:42;1.60;;;1.30;;
70780;SDS011;59514;48.810;2.134;2023-07-20T00:13:08;2.70;;;1.53;;
70780;SDS011;59514;48.810;2.134;2023-07-20T00:15:33;3.17;;;2.00;;
70780;SDS011;59514;48.810;2.134;2023-07-20T00:17:58;3.30;;;1.83;;
70780;SDS011;59514;48.810;2.134;2023-07-20T00:20:24;3.60;;;1.80;;
70780;SDS011;59514;48.810;2.134;2023-07-20T00:22:50;2.50;;;1.80;;
70780;SDS011;59514;48.810;2.134;2023-07-20T00:25:16;3.30;;;1.45;;
70780;SDS011;59514;48.810;2.134;2023-07-20T00:27:41;3.72;;;2.08;;
70780;SDS011;59514;48.810;2.134;2023-07-20T00:30:06;2.87;;;1.87;;
70780;SDS011;59514;48.810;2.134;2023-07-20T00:32:32;2.30;;;1.52;;
70780;SDS011;59514;48.810;2.134;2023-07-20T00:34:57;2.80;;;1.73;;
70780;SDS011;59514;48.810;2.134;2023-07-20T00:37:22;3.10;;;2.00;;
70780;SDS011;59514;48.810;2.134;2023-07-20T00:39:47;2.70;;;1.60;;
70780;SDS011;59514;48.810;2.134;2023-07-20T00:42:13;1.50;;;1.40;;
70780;SDS011;59514;48.810;2.134;2023-07-20T00:44:38;2.03;;;1.77;;
70780;SDS011;59514;48.810;2.134;2023-07-20T00:47:03;2.43;;;1.40;;
70780;SDS011;59514;48.810;2.134;2023-07-20T00:49:29;2.58;;;1.92;;
70780;SDS011;59514;48.810;2.134;2023-07-20T00:51:54;2.37;;;1.40;;
70780;SDS011;59514;48.810;2.134;2023-07-20T00:54:19;2.45;;;1.92;;
70780;SDS011;59514;48.810;2.134;2023-07-20T00:56:45;2.20;;;1.77;;
70780;SDS011;59514;48.810;2.134;2023-07-20T00:59:10;2.97;;;1.70;;
70780;SDS011;59514;48.810;2.134;2023-07-20T01:01:35;2.97;;;1.88;;
70780;SDS011;59514;48.810;2.134;2023-07-20T01:04:01;2.40;;;1.50;;
70780;SDS011;59514;48.810;2.134;2023-07-20T01:11:36;2.33;;;1.70;;
70780;SDS011;59514;48.810;2.134;2023-07-20T01:14:02;3.00;;;1.73;;
70780;SDS011;59514;48.810;2.134;2023-07-20T01:16:28;1.90;;;1.60;;
70780;SDS011;59514;48.810;2.134;2023-07-20T01:18:53;2.03;;;1.45;;
70780;SDS011;59514;48.810;2.134;2023-07-20T01:21:21;2.30;;;1.60;;
70780;SDS011;59514;48.810;2.134;2023-07-20T01:23:56;3.13;;;1.73;;
70780;SDS011;59514;48.810;2.134;2023-07-20T01:26:31;1.92;;;1.60;;
70780;SDS011;59514;48.810;2.134;2023-07-20T01:31:28;3.40;;;2.03;;
70780;SDS011;59514;48.810;2.134;2023-07-20T01:33:56;4.13;;;1.95;;
70780;SDS011;59514;48.810;2.134;2023-07-20T01:36:22;2.10;;;1.48;;
70780;SDS011;59514;48.810;2.134;2023-07-20T01:38:48;2.20;;;1.70;;
70780;SDS011;59514;48.810;2.134;2023-07-20T01:41:14;4.13;;;1.85;;
70780;SDS011;59514;48.810;2.134;2023-07-20T01:43:40;1.55;;;1.45;;
70780;SDS011;59514;48.810;2.134;2023-07-20T01:46:05;2.05;;;1.85;;
70780;SDS011;59514;48.810;2.134;2023-07-20T01:48:31;2.67;;;1.50;;
70780;SDS011;59514;48.810;2.134;2023-07-20T01:50:56;2.13;;;1.67;;
70780;SDS011;59514;48.810;2.134;2023-07-20T01:53:22;2.40;;;1.73;;
70780;SDS011;59514;48.810;2.134;2023-07-20T01:55:47;3.38;;;2.30;;
70780;SDS011;59514;48.810;2.134;2023-07-20T01:58:12;2.00;;;1.80;;
70780;SDS011;59514;48.810;2.134;2023-07-20T02:00:38;1.60;;;1.50;;
70780;SDS011;59514;48.810;2.134;2023-07-20T02:03:03;4.22;;;2.33;;
70780;SDS011;59514;48.810;2.134;2023-07-20T02:05:29;2.43;;;1.97;;
70780;SDS011;59514;48.810;2.134;2023-07-20T02:07:54;2.60;;;1.70;;
70780;SDS011;59514;48.810;2.134;2023-07-20T02:10:19;2.53;;;2.20;;
70780;SDS011;59514;48.810;2.134;2023-07-20T02:12:44;3.37;;;1.97;;
70780;SDS011;59514;48.810;2.134;2023-07-20T02:15:09;1.92;;;1.80;;
70780;SDS011;59514;48.810;2.134;2023-07-20T02:17:35;1.95;;;1.77;;
70780;SDS011;59514;48.810;2.134;2023-07-20T02:20:00;1.73;;;1.40;;
70780;SDS011;59514;48.810;2.134;2023-07-20T02:22:25;1.93;;;1.63;;
70780;SDS011;59514;48.810;2.134;2023-07-20T02:24:50;1.73;;;1.60;;
70780;SDS011;59514;48.810;2.134;2023-07-20T02:27:16;2.53;;;1.50;;
70780;SDS011;59514;48.810;2.134;2023-07-20T02:29:41;1.52;;;1.23;;
70780;SDS011;59514;48.810;2.134;2023-07-20T02:32:07;2.92;;;1.88;;
70780;SDS011;59514;48.810;2.134;2023-07-20T02:34:32;2.22;;;2.03;;
70780;SDS011;59514;48.810;2.134;2023-07-20T02:36:58;3.83;;;2.25;;
70780;SDS011;59514;48.810;2.134;2023-07-20T02:39:26;2.15;;;1.48;;
70780;SDS011;59514;48.810;2.134;2023-07-20T02:41:51;2.80;;;1.85;;
70780;SDS011;59514;48.810;2.134;2023-07-20T02:44:17;2.10;;;1.73;;
70780;SDS011;59514;48.810;2.134;2023-07-20T02:46:42;1.70;;;1.60;;
70780;SDS011;59514;48.810;2.134;2023-07-20T02:49:07;1.93;;;1.57;;
70780;SDS011;59514;48.810;2.134;2023-07-20T02:51:32;1.67;;;1.57;;
70780;SDS011;59514;48.810;2.134;2023-07-20T02:53:58;3.00;;;2.07;;
70780;SDS011;59514;48.810;2.134;2023-07-20T02:56:24;2.20;;;1.98;;
70780;SDS011;59514;48.810;2.134;2023-07-20T02:58:49;2.25;;;2.00;;
70780;SDS011;59514;48.810;2.134;2023-07-20T03:01:14;3.40;;;2.17;;
70780;SDS011;59514;48.810;2.134;2023-07-20T03:03:40;4.32;;;2.67;;
70780;SDS011;59514;48.810;2.134;2023-07-20T03:06:05;3.17;;;2.10;;
70780;SDS011;59514;48.810;2.134;2023-07-20T03:08:30;3.83;;;2.47;;
70780;SDS011;59514;48.810;2.134;2023-07-20T03:10:55;3.57;;;2.10;;
70780;SDS011;59514;48.810;2.134;2023-07-20T03:13:21;2.70;;;2.07;;
70780;SDS011;59514;48.810;2.134;2023-07-20T03:15:46;2.07;;;1.87;;
70780;SDS011;59514;48.810;2.134;2023-07-20T03:18:11;2.33;;;1.93;;
70780;SDS011;59514;48.810;2.134;2023-07-20T03:20:37;3.70;;;2.00;;
70780;SDS011;59514;48.810;2.134;2023-07-20T03:23:03;2.20;;;1.83;;
70780;SDS011;59514;48.810;2.134;2023-07-20T03:25:28;2.10;;;1.90;;
70780;SDS011;59514;48.810;2.134;2023-07-20T03:27:53;3.90;;;2.60;;
70780;SDS011;59514;48.810;2.134;2023-07-20T03:30:18;2.60;;;2.00;;
70780;SDS011;59514;48.810;2.134;2023-07-20T03:32:43;2.20;;;1.83;;
70780;SDS011;59514;48.810;2.134;2023-07-20T03:35:09;3.53;;;2.40;;
70780;SDS011;59514;48.810;2.134;2023-07-20T03:37:34;2.95;;;2.33;;
70780;SDS011;59514;48.810;2.134;2023-07-20T03:40:01;3.92;;;2.28;;
70780;SDS011;59514;48.810;2.134;2023-07-20T03:42:27;1.95;;;1.80;;
70780;SDS011;59514;48.810;2.134;2023-07-20T03:44:52;2.67;;;2.37;;
70780;SDS011;59514;48.810;2.134;2023-07-20T03:47:17;3.30;;;2.20;;
70780;SDS011;59514;48.810;2.134;2023-07-20T03:49:43;8.03;;;2.50;;
70780;SDS011;59514;48.810;2.134;2023-07-20T03:52:08;2.40;;;2.03;;
70780;SDS011;59514;48.810;2.134;2023-07-20T03:54:34;2.67;;;1.83;;
70780;SDS011;59514;48.810;2.134;2023-07-20T03:56:59;3.07;;;2.20;;
70780;SDS011;59514;48.810;2.134;2023-07-20T03:59:25;2.20;;;1.85;;
70780;SDS011;59514;48.810;2.134;2023-07-20T04:01:50;2.60;;;2.10;;
70780;SDS011;59514;48.810;2.134;2023-07-20T04:04:16;4.47;;;1.97;;
70780;SDS011;59514;48.810;2.134;2023-07-20T04:06:41;5.40;;;2.47;;
70780;SDS011;59514;48.810;2.134;2023-07-20T04:09:09;3.00;;;2.15;;
70780;SDS011;59514;48.810;2.134;2023-07-20T04:11:34;2.42;;;2.22;;
70780;SDS011;59514;48.810;2.134;2023-07-20T04:14:00;2.33;;;2.03;;
70780;SDS011;59514;48.810;2.134;2023-07-20T04:16:25;1.80;;;1.60;;
70780;SDS011;59514;48.810;2.134;2023-07-20T04:18:51;2.85;;;2.30;;
70780;SDS011;59514;48.810;2.134;2023-07-20T04:21:17;2.50;;;1.67;;
70780;SDS011;59514;48.810;2.134;2023-07-20T04:23:42;1.73;;;1.63;;
70780;SDS011;59514;48.810;2.134;2023-07-20T04:26:07;3.23;;;2.17;;
70780;SDS011;59514;48.810;2.134;2023-07-20T04:28:32;1.63;;;1.52;;
70780;SDS011;59514;48.810;2.134;2023-07-20T04:31:16;1.77;;;1.67;;
70780;SDS011;59514;48.810;2.134;2023-07-20T04:33:41;3.22;;;1.92;;
70780;SDS011;59514;48.810;2.134;2023-07-20T04:36:07;2.27;;;1.70;;
70780;SDS011;59514;48.810;2.134;2023-07-20T04:38:32;4.10;;;2.20;;
70780;SDS011;59514;48.810;2.134;2023-07-20T04:40:58;3.83;;;2.33;;
70780;SDS011;59514;48.810;2.134;2023-07-20T04:43:23;2.90;;;2.07;;
70780;SDS011;59514;48.810;2.134;2023-07-20T04:45:48;4.20;;;2.85;;
70780;SDS011;59514;48.810;2.134;2023-07-20T04:48:14;3.33;;;2.58;;
70780;SDS011;59514;48.810;2.134;2023-07-20T04:50:40;3.25;;;2.63;;
70780;SDS011;59514;48.810;2.134;2023-07-20T04:53:06;4.55;;;2.90;;
70780;SDS011;59514;48.810;2.134;2023-07-20T04:55:31;4.93;;;3.03;;
70780;SDS011;59514;48.810;2.134;2023-07-20T04:57:58;3.20;;;2.50;;
70780;SDS011;59514;48.810;2.134;2023-07-20T05:00:24;3.28;;;2.20;;
70780;SDS011;59514;48.810;2.134;2023-07-20T05:02:49;3.10;;;2.30;;
70780;SDS011;59514;48.810;2.134;2023-07-20T05:05:15;2.65;;;2.45;;
70780;SDS011;59514;48.810;2.134;2023-07-20T05:07:40;4.47;;;2.53;;
70780;SDS011;59514;48.810;2.134;2023-07-20T05:10:06;3.03;;;2.73;;
70780;SDS011;59514;48.810;2.134;2023-07-20T05:12:31;3.47;;;2.50;;
70780;SDS011;59514;48.810;2.134;2023-07-20T05:14:56;3.50;;;2.40;;
70780;SDS011;59514;48.810;2.134;2023-07-20T05:17:21;4.33;;;2.97;;
70780;SDS011;59514;48.810;2.134;2023-07-20T05:19:46;4.40;;;2.67;;
70780;SDS011;59514;48.810;2.134;2023-07-20T05:22:13;3.50;;;2.73;;
70780;SDS011;59514;48.810;2.134;2023-07-20T05:24:38;9.68;;;3.72;;
70780;SDS011;59514;48.810;2.134;2023-07-20T05:27:03;4.00;;;2.87;;
70780;SDS011;59514;48.810;2.134;2023-07-20T05:29:29;4.53;;;2.47;;
70780;SDS011;59514;48.810;2.134;2023-07-20T05:31:54;2.90;;;2.13;;
70780;SDS011;59514;48.810;2.134;2023-07-20T05:34:19;3.40;;;2.57;;
70780;SDS011;59514;48.810;2.134;2023-07-20T05:36:45;4.55;;;2.60;;
70780;SDS011;59514;48.810;2.134;2023-07-20T05:39:11;2.70;;;1.83;;
70780;SDS011;59514;48.810;2.134;2023-07-20T05:41:36;5.27;;;3.33;;
70780;SDS011;59514;48.810;2.134;2023-07-20T05:44:01;8.10;;;2.90;;
70780;SDS011;59514;48.810;2.134;2023-07-20T05:46:26;4.27;;;2.57;;
70780;SDS011;59514;48.810;2.134;2023-07-20T05:48:51;5.43;;;2.90;;
70780;SDS011;59514;48.810;2.134;2023-07-20T05:51:17;2.93;;;2.60;;
70780;SDS011;59514;48.810;2.134;2023-07-20T05:53:42;4.00;;;2.60;;
70780;SDS011;59514;48.810;2.134;2023-07-20T05:56:07;6.23;;;3.33;;
70780;SDS011;59514;48.810;2.134;2023-07-20T05:58:35;4.90;;;2.72;;
70780;SDS011;59514;48.810;2.134;2023-07-20T06:01:00;6.15;;;3.28;;
70780;SDS011;59514;48.810;2.134;2023-07-20T06:03:27;3.85;;;2.80;;
70780;SDS011;59514;48.810;2.134;2023-07-20T06:05:52;6.80;;;3.10;;
70780;SDS011;59514;48.810;2.134;2023-07-20T06:08:22;4.45;;;3.40;;
70780;SDS011;59514;48.810;2.134;2023-07-20T06:10:49;7.78;;;3.08;;
70780;SDS011;59514;48.810;2.134;2023-07-20T06:13:15;5.18;;;3.00;;
70780;SDS011;59514;48.810;2.134;2023-07-20T06:15:40;5.83;;;3.73;;
70780;SDS011;59514;48.810;2.134;2023-07-20T06:18:06;3.53;;;2.72;;
70780;SDS011;59514;48.810;2.134;2023-07-20T06:20:31;8.53;;;6.80;;
70780;SDS011;59514;48.810;2.134;2023-07-20T06:22:56;8.57;;;5.97;;
70780;SDS011;59514;48.810;2.134;2023-07-20T06:25:21;3.93;;;3.17;;
70780;SDS011;59514;48.810;2.134;2023-07-20T06:27:48;4.93;;;3.50;;
70780;SDS011;59514;48.810;2.134;2023-07-20T06:30:13;5.72;;;3.33;;
70780;SDS011;59514;48.810;2.134;2023-07-20T06:32:39;4.57;;;2.70;;
70780;SDS011;59514;48.810;2.134;2023-07-20T06:35:04;6.23;;;2.80;;
70780;SDS011;59514;48.810;2.134;2023-07-20T06:37:30;5.50;;;3.70;;
70780;SDS011;59514;48.810;2.134;2023-07-20T06:39:55;5.07;;;2.93;;
70780;SDS011;59514;48.810;2.134;2023-07-20T06:42:20;6.10;;;3.50;;
70780;SDS011;59514;48.810;2.134;2023-07-20T06:44:45;6.30;;;3.63;;
70780;SDS011;59514;48.810;2.134;2023-07-20T06:47:10;4.97;;;3.57;;
70780;SDS011;59514;48.810;2.134;2023-07-20T06:49:35;5.33;;;3.20;;
70780;SDS011;59514;48.810;2.134;2023-07-20T06:52:01;7.23;;;3.73;;
70780;SDS011;59514;48.810;2.134;2023-07-20T06:54:26;4.60;;;3.47;;
70780;SDS011;59514;48.810;2.134;2023-07-20T06:56:51;6.83;;;3.70;;
70780;SDS011;59514;48.810;2.134;2023-07-20T06:59:16;8.17;;;3.83;;
70780;SDS011;59514;48.810;2.134;2023-07-20T07:01:42;4.88;;;2.60;;
70780;SDS011;59514;48.810;2.134;2023-07-20T07:04:07;4.03;;;3.53;;
70780;SDS011;59514;48.810;2.134;2023-07-20T07:06:32;5.00;;;2.90;;
70780;SDS011;59514;48.810;2.134;2023-07-20T07:08:58;6.13;;;2.88;;
70780;SDS011;59514;48.810;2.134;2023-07-20T07:11:23;5.97;;;3.38;;
70780;SDS011;59514;48.810;2.134;2023-07-20T07:13:48;4.63;;;2.93;;
70780;SDS011;59514;48.810;2.134;2023-07-20T07:16:16;3.88;;;3.05;;
70780;SDS011;59514;48.810;2.134;2023-07-20T07:18:43;4.68;;;3.10;;
70780;SDS011;59514;48.810;2.134;2023-07-20T07:21:09;3.88;;;2.65;;
70780;SDS011;59514;48.810;2.134;2023-07-20T07:23:34;3.33;;;2.70;;
70780;SDS011;59514;48.810;2.134;2023-07-20T07:25:59;4.03;;;2.90;;
70780;SDS011;59514;48.810;2.134;2023-07-20T07:28:24;6.70;;;2.63;;
70780;SDS011;59514;48.810;2.134;2023-07-20T07:30:49;5.22;;;2.50;;
70780;SDS011;59514;48.810;2.134;2023-07-20T07:33:15;5.77;;;2.60;;
70780;SDS011;59514;48.810;2.134;2023-07-20T07:35:40;6.25;;;2.53;;
70780;SDS011;59514;48.810;2.134;2023-07-20T07:38:05;5.30;;;3.20;;
70780;SDS011;59514;48.810;2.134;2023-07-20T07:40:31;2.80;;;2.33;;
70780;SDS011;59514;48.810;2.134;2023-07-20T07:42:56;2.55;;;2.28;;
70780;SDS011;59514;48.810;2.134;2023-07-20T07:45:22;6.20;;;2.80;;
70780;SDS011;59514;48.810;2.134;2023-07-20T07:47:47;3.33;;;2.53;;
70780;SDS011;59514;48.810;2.134;2023-07-20T07:50:12;4.20;;;2.53;;
70780;SDS011;59514;48.810;2.134;2023-07-20T07:52:37;3.23;;;2.40;;
70780;SDS011;59514;48.810;2.134;2023-07-20T07:55:02;3.07;;;1.90;;
70780;SDS011;59514;48.810;2.134;2023-07-20T07:57:29;3.38;;;2.00;;
70780;SDS011;59514;48.810;2.134;2023-07-20T07:59:54;3.50;;;1.90;;
70780;SDS011;59514;48.810;2.134;2023-07-20T08:02:19;4.97;;;1.80;;
70780;SDS011;59514;48.810;2.134;2023-07-20T08:04:44;2.30;;;1.97;;
70780;SDS011;59514;48.810;2.134;2023-07-20T08:07:09;2.77;;;1.70;;
70780;SDS011;59514;48.810;2.134;2023-07-20T08:09:35;2.17;;;1.93;;
70780;SDS011;59514;48.810;2.134;2023-07-20T08:12:00;2.57;;;1.63;;
70780;SDS011;59514;48.810;2.134;2023-07-20T08:14:25;1.97;;;1.70;;
70780;SDS011;59514;48.810;2.134;2023-07-20T08:16:50;1.90;;;1.80;;
70780;SDS011;59514;48.810;2.134;2023-07-20T08:19:15;2.63;;;1.67;;
70780;SDS011;59514;48.810;2.134;2023-07-20T08:21:41;1.70;;;1.60;;
70780;SDS011;59514;48.810;2.134;2023-07-20T08:24:06;3.30;;;2.07;;
70780;SDS011;59514;48.810;2.134;2023-07-20T08:26:32;4.22;;;1.92;;
70780;SDS011;59514;48.810;2.134;2023-07-20T08:28:57;3.63;;;1.93;;
70780;SDS011;59514;48.810;2.134;2023-07-20T08:31:22;3.47;;;1.60;;
70780;SDS011;59514;48.810;2.134;2023-07-20T08:33:48;2.78;;;2.10;;
70780;SDS011;59514;48.810;2.134;2023-07-20T08:36:13;2.35;;;1.73;;
70780;SDS011;59514;48.810;2.134;2023-07-20T08:38:38;2.60;;;1.70;;
70780;SDS011;59514;48.810;2.134;2023-07-20T08:41:04;1.70;;;1.60;;
70780;SDS011;59514;48.810;2.134;2023-07-20T08:43:29;1.63;;;1.50;;
70780;SDS011;59514;48.810;2.134;2023-07-20T08:45:55;2.13;;;1.73;;
70780;SDS011;59514;48.810;2.134;2023-07-20T08:48:21;2.78;;;1.60;;
70780;SDS011;59514;48.810;2.134;2023-07-20T08:50:47;2.45;;;1.52;;
70780;SDS011;59514;48.810;2.134;2023-07-20T08:53:14;1.70;;;1.50;;
70780;SDS011;59514;48.810;2.134;2023-07-20T08:55:39;2.80;;;1.50;;
70780;SDS011;59514;48.810;2.134;2023-07-20T08:58:05;1.52;;;1.23;;
70780;SDS011;59514;48.810;2.134;2023-07-20T09:00:33;3.38;;;1.58;;
70780;SDS011;59514;48.810;2.134;2023-07-20T09:02:59;2.58;;;1.40;;
70780;SDS011;59514;48.810;2.134;2023-07-20T09:05:27;6.20;;;1.50;;
70780;SDS011;59514;48.810;2.134;2023-07-20T09:07:53;1.47;;;1.00;;
70780;SDS011;59514;48.810;2.134;2023-07-20T09:10:19;2.25;;;1.52;;
70780;SDS011;59514;48.810;2.134;2023-07-20T09:12:45;4.38;;;1.60;;
70780;SDS011;59514;48.810;2.134;2023-07-20T09:15:11;3.73;;;1.43;;
70780;SDS011;59514;48.810;2.134;2023-07-20T09:17:37;2.20;;;1.65;;
70780;SDS011;59514;48.810;2.134;2023-07-20T09:20:05;1.70;;;1.40;;
70780;SDS011;59514;48.810;2.134;2023-07-20T09:22:36;2.72;;;1.23;;
70780;SDS011;59514;48.810;2.134;2023-07-20T09:25:03;1.67;;;1.08;;
70780;SDS011;59514;48.810;2.134;2023-07-20T09:27:37;2.72;;;1.25;;
70780;SDS011;59514;48.810;2.134;2023-07-20T09:30:02;2.20;;;1.15;;
70780;SDS011;59514;48.810;2.134;2023-07-20T09:32:28;2.22;;;1.10;;
70780;SDS011;59514;48.810;2.134;2023-07-20T09:34:54;2.70;;;1.17;;
70780;SDS011;59514;48.810;2.134;2023-07-20T09:37:20;3.35;;;1.30;;
70780;SDS011;59514;48.810;2.134;2023-07-20T09:39:46;1.13;;;1.00;;
70780;SDS011;59514;48.810;2.134;2023-07-20T09:42:11;2.57;;;1.23;;
70780;SDS011;59514;48.810;2.134;2023-07-20T09:44:38;2.05;;;1.05;;
70780;SDS011;59514;48.810;2.134;2023-07-20T09:47:03;4.80;;;1.40;;
70780;SDS011;59514;48.810;2.134;2023-07-20T09:49:28;1.52;;;1.00;;
70780;SDS011;59514;48.810;2.134;2023-07-20T09:51:53;1.53;;;1.10;;
70780;SDS011;59514;48.810;2.134;2023-07-20T09:54:20;1.40;;;1.20;;
70780;SDS011;59514;48.810;2.134;2023-07-20T09:56:46;1.90;;;0.98;;
70780;SDS011;59514;48.810;2.134;2023-07-20T09:59:13;2.22;;;0.95;;
70780;SDS011;59514;48.810;2.134;2023-07-20T10:01:39;2.50;;;0.80;;
70780;SDS011;59514;48.810;2.134;2023-07-20T10:04:07;1.05;;;0.73;;
70780;SDS011;59514;48.810;2.134;2023-07-20T10:06:33;1.85;;;0.73;;
70780;SDS011;59514;48.810;2.134;2023-07-20T10:09:03;0.85;;;0.50;;
70780;SDS011;59514;48.810;2.134;2023-07-20T10:11:32;0.98;;;0.60;;
70780;SDS011;59514;48.810;2.134;2023-07-20T10:13:59;0.50;;;0.47;;
70780;SDS011;59514;48.810;2.134;2023-07-20T10:16:29;0.98;;;0.80;;
70780;SDS011;59514;48.810;2.134;2023-07-20T10:18:59;2.22;;;0.70;;
70780;SDS011;59514;48.810;2.134;2023-07-20T10:21:26;2.75;;;0.70;;
70780;SDS011;59514;48.810;2.134;2023-07-20T10:23:54;1.52;;;0.80;;
70780;SDS011;59514;48.810;2.134;2023-07-20T10:26:20;0.68;;;0.63;;
70780;SDS011;59514;48.810;2.134;2023-07-20T10:28:45;0.67;;;0.60;;
70780;SDS011;59514;48.810;2.134;2023-07-20T10:31:11;2.47;;;0.77;;
70780;SDS011;59514;48.810;2.134;2023-07-20T10:33:37;0.93;;;0.80;;
70780;SDS011;59514;48.810;2.134;2023-07-20T10:36:04;2.05;;;1.10;;
70780;SDS011;59514;48.810;2.134;2023-07-20T10:38:38;1.45;;;0.60;;
70780;SDS011;59514;48.810;2.134;2023-07-20T10:41:04;0.60;;;0.60;;
70780;SDS011;59514;48.810;2.134;2023-07-20T10:43:41;0.85;;;0.60;;
70780;SDS011;59514;48.810;2.134;2023-07-20T10:46:07;0.80;;;0.75;;
70780;SDS011;59514;48.810;2.134;2023-07-20T10:48:32;1.17;;;0.90;;
70780;SDS011;59514;48.810;2.134;2023-07-20T10:51:13;0.70;;;0.70;;
70780;SDS011;59514;48.810;2.134;2023-07-20T10:53:42;1.00;;;0.75;;
70780;SDS011;59514;48.810;2.134;2023-07-20T10:56:14;0.50;;;0.50;;
70780;SDS011;59514;48.810;2.134;2023-07-20T10:58:40;1.17;;;0.73;;
70780;SDS011;59514;48.810;2.134;2023-07-20T11:01:06;0.88;;;0.80;;
70780;SDS011;59514;48.810;2.134;2023-07-20T11:03:34;1.85;;;1.30;;
70780;SDS011;59514;48.810;2.134;2023-07-20T11:06:00;0.80;;;0.73;;
70780;SDS011;59514;48.810;2.134;2023-07-20T11:08:44;1.00;;;0.90;;
70780;SDS011;59514;48.810;2.134;2023-07-20T11:11:27;1.30;;;0.80;;
70780;SDS011;59514;48.810;2.134;2023-07-20T11:14:39;1.08;;;0.60;;
70780;SDS011;59514;48.810;2.134;2023-07-20T11:16:41;0.85;;;0.65;;
70780;SDS011;59514;48.810;2.134;2023-07-20T11:19:21;0.75;;;0.57;;
70780;SDS011;59514;48.810;2.134;2023-07-20T11:21:57;0.63;;;0.45;;
70780;SDS011;59514;48.810;2.134;2023-07-20T11:24:23;0.60;;;0.50;;
70780;SDS011;59514;48.810;2.134;2023-07-20T11:26:49;0.50;;;0.40;;
70780;SDS011;59514;48.810;2.134;2023-07-20T11:29:15;1.50;;;0.60;;
70780;SDS011;59514;48.810;2.134;2023-07-20T11:31:41;0.68;;;0.65;;
70780;SDS011;59514;48.810;2.134;2023-07-20T11:34:10;0.65;;;0.40;;
70780;SDS011;59514;48.810;2.134;2023-07-20T11:36:37;0.63;;;0.57;;
70780;SDS011;59514;48.810;2.134;2023-07-20T11:39:02;1.23;;;0.50;;
70780;SDS011;59514;48.810;2.134;2023-07-20T11:41:29;1.00;;;0.60;;
70780;SDS011;59514;48.810;2.134;2023-07-20T11:43:55;1.02;;;0.50;;
70780;SDS011;59514;48.810;2.134;2023-07-20T11:46:20;1.48;;;0.70;;
70780;SDS011;59514;48.810;2.134;2023-07-20T11:48:45;1.00;;;0.90;;
70780;SDS011;59514;48.810;2.134;2023-07-20T11:51:14;0.90;;;0.73;;
70780;SDS011;59514;48.810;2.134;2023-07-20T11:53:40;0.95;;;0.57;;
70780;SDS011;59514;48.810;2.134;2023-07-20T11:56:05;0.95;;;0.70;;
70780;SDS011;59514;48.810;2.134;2023-07-20T11:58:30;0.77;;;0.70;;
70780;SDS011;59514;48.810;2.134;2023-07-20T12:00:55;1.03;;;0.70;;
70780;SDS011;59514;48.810;2.134;2023-07-20T12:03:21;1.30;;;0.80;;
70780;SDS011;59514;48.810;2.134;2023-07-20T12:05:46;0.60;;;0.60;;
70780;SDS011;59514;48.810;2.134;2023-07-20T12:08:11;0.70;;;0.70;;
70780;SDS011;59514;48.810;2.134;2023-07-20T12:10:38;0.53;;;0.47;;
70780;SDS011;59514;48.810;2.134;2023-07-20T12:13:08;0.98;;;0.52;;
70780;SDS011;59514;48.810;2.134;2023-07-20T12:15:34;0.95;;;0.77;;
70780;SDS011;59514;48.810;2.134;2023-07-20T12:18:00;1.43;;;1.17;;
70780;SDS011;59514;48.810;2.134;2023-07-20T12:20:29;2.08;;;0.50;;
70780;SDS011;59514;48.810;2.134;2023-07-20T12:22:56;0.60;;;0.52;;
70780;SDS011;59514;48.810;2.134;2023-07-20T12:25:21;2.42;;;0.80;;
70780;SDS011;59514;48.810;2.134;2023-07-20T12:27:47;0.50;;;0.50;;
70780;SDS011;59514;48.810;2.134;2023-07-20T12:30:13;2.17;;;0.68;;
70780;SDS011;59514;48.810;2.134;2023-07-20T12:32:38;1.20;;;0.73;;
70780;SDS011;59514;48.810;2.134;2023-07-20T12:35:04;0.60;;;0.60;;
70780;SDS011;59514;48.810;2.134;2023-07-20T12:37:29;1.15;;;0.60;;
70780;SDS011;59514;48.810;2.134;2023-07-20T12:39:54;1.00;;;0.53;;
70780;SDS011;59514;48.810;2.134;2023-07-20T12:42:19;0.77;;;0.70;;
70780;SDS011;59514;48.810;2.134;2023-07-20T12:44:45;1.50;;;0.57;;
70780;SDS011;59514;48.810;2.134;2023-07-20T12:47:10;0.47;;;0.45;;
70780;SDS011;59514;48.810;2.134;2023-07-20T12:49:36;1.10;;;0.57;;
70780;SDS011;59514;48.810;2.134;2023-07-20T12:52:01;1.50;;;0.60;;
70780;SDS011;59514;48.810;2.134;2023-07-20T12:54:26;1.07;;;0.53;;
70780;SDS011;59514;48.810;2.134;2023-07-20T12:56:51;0.80;;;0.50;;
70780;SDS011;59514;48.810;2.134;2023-07-20T12:59:16;0.50;;;0.50;;
70780;SDS011;59514;48.810;2.134;2023-07-20T13:01:42;1.27;;;0.63;;
70780;SDS011;59514;48.810;2.134;2023-07-20T13:04:08;0.98;;;0.40;;
70780;SDS011;59514;48.810;2.134;2023-07-20T13:06:34;0.57;;;0.37;;
70780;SDS011;59514;48.810;2.134;2023-07-20T13:08:59;1.40;;;0.50;;
70780;SDS011;59514;48.810;2.134;2023-07-20T13:11:24;0.83;;;0.60;;
70780;SDS011;59514;48.810;2.134;2023-07-20T13:13:50;0.87;;;0.50;;
70780;SDS011;59514;48.810;2.134;2023-07-20T13:16:15;0.87;;;0.83;;
70780;SDS011;59514;48.810;2.134;2023-07-20T13:18:40;1.30;;;1.20;;
70780;SDS011;59514;48.810;2.134;2023-07-20T13:21:05;1.90;;;0.87;;
70780;SDS011;59514;48.810;2.134;2023-07-20T13:23:35;1.52;;;0.80;;
70780;SDS011;59514;48.810;2.134;2023-07-20T13:26:00;1.07;;;0.60;;
70780;SDS011;59514;48.810;2.134;2023-07-20T13:28:25;0.73;;;0.73;;
70780;SDS011;59514;48.810;2.134;2023-07-20T13:30:50;1.20;;;0.60;;
70780;SDS011;59514;48.810;2.134;2023-07-20T13:33:16;0.60;;;0.50;;
70780;SDS011;59514;48.810;2.134;2023-07-20T13:35:41;2.00;;;0.77;;
70780;SDS011;59514;48.810;2.134;2023-07-20T13:38:06;0.53;;;0.40;;
70780;SDS011;59514;48.810;2.134;2023-07-20T13:40:32;0.67;;;0.53;;
70780;SDS011;59514;48.810;2.134;2023-07-20T13:42:57;0.98;;;0.40;;
70780;SDS011;59514;48.810;2.134;2023-07-20T13:45:22;0.70;;;0.67;;
70780;SDS011;59514;48.810;2.134;2023-07-20T13:47:47;0.93;;;0.70;;
70780;SDS011;59514;48.810;2.134;2023-07-20T13:50:13;1.02;;;0.80;;
70780;SDS011;59514;48.810;2.134;2023-07-20T13:52:38;1.23;;;0.60;;
70780;SDS011;59514;48.810;2.134;2023-07-20T13:55:03;0.80;;;0.73;;
70780;SDS011;59514;48.810;2.134;2023-07-20T13:57:29;1.10;;;0.77;;
70780;SDS011;59514;48.810;2.134;2023-07-20T13:59:54;1.80;;;0.80;;
70780;SDS011;59514;48.810;2.134;2023-07-20T14:02:20;0.68;;;0.68;;
70780;SDS011;59514;48.810;2.134;2023-07-20T14:04:45;2.63;;;0.67;;
70780;SDS011;59514;48.810;2.134;2023-07-20T14:07:10;0.80;;;0.60;;
70780;SDS011;59514;48.810;2.134;2023-07-20T14:09:36;0.88;;;0.73;;
70780;SDS011;59514;48.810;2.134;2023-07-20T14:12:01;1.33;;;0.70;;
70780;SDS011;59514;48.810;2.134;2023-07-20T14:14:26;0.90;;;0.60;;
70780;SDS011;59514;48.810;2.134;2023-07-20T14:16:51;1.20;;;0.50;;
70780;SDS011;59514;48.810;2.134;2023-07-20T14:19:17;1.33;;;0.60;;
70780;SDS011;59514;48.810;2.134;2023-07-20T14:21:42;1.67;;;0.60;;
70780;SDS011;59514;48.810;2.134;2023-07-20T14:24:07;1.70;;;0.70;;
70780;SDS011;59514;48.810;2.134;2023-07-20T14:26:32;0.60;;;0.50;;
70780;SDS011;59514;48.810;2.134;2023-07-20T14:28:57;1.13;;;0.50;;
70780;SDS011;59514;48.810;2.134;2023-07-20T14:31:23;0.80;;;0.60;;
70780;SDS011;59514;48.810;2.134;2023-07-20T14:33:48;0.77;;;0.50;;
70780;SDS011;59514;48.810;2.134;2023-07-20T14:36:13;1.27;;;0.50;;
70780;SDS011;59514;48.810;2.134;2023-07-20T14:38:38;1.77;;;0.57;;
70780;SDS011;59514;48.810;2.134;2023-07-20T14:41:05;0.77;;;0.60;;
70780;SDS011;59514;48.810;2.134;2023-07-20T14:43:31;0.68;;;0.40;;
70780;SDS011;59514;48.810;2.134;2023-07-20T14:45:57;0.95;;;0.70;;
70780;SDS011;59514;48.810;2.134;2023-07-20T14:48:22;1.23;;;0.90;;